createdAt,value
2019-03-28T00:01:01.192Z,6.77
2019-03-28T00:07:05.837Z,7.60
2019-03-28T00:13:10.559Z,6.87
2019-03-28T00:19:15.178Z,7.57
2019-03-28T00:25:20.181Z,7.73
2019-03-28T00:31:24.755Z,8.17
2019-03-28T00:37:29.326Z,8.87
2019-03-28T00:43:34.009Z,9.37
2019-03-28T00:49:38.589Z,9.20
2019-03-28T00:55:43.244Z,10.43
2019-03-28T01:01:47.918Z,9.43
2019-03-28T01:07:52.583Z,10.20
2019-03-28T01:13:57.158Z,10.60
2019-03-28T01:20:01.767Z,10.00
2019-03-28T01:26:06.442Z,9.50
2019-03-28T01:32:11.087Z,10.07
2019-03-28T01:38:15.753Z,11.33
2019-03-28T01:44:20.328Z,9.80
2019-03-28T01:50:24.950Z,10.77
2019-03-28T01:56:29.519Z,10.53
2019-03-28T02:02:34.175Z,11.77
2019-03-28T02:08:38.844Z,11.37
2019-03-28T02:14:43.433Z,11.67
2019-03-28T02:20:48.046Z,11.23
2019-03-28T02:26:52.620Z,11.50
2019-03-28T02:32:57.208Z,11.87
2019-03-28T02:39:01.818Z,12.10
2019-03-28T02:45:08.119Z,11.97
2019-03-28T02:51:12.745Z,14.13
2019-03-28T02:57:17.347Z,13.17
2019-03-28T03:03:21.947Z,12.97
2019-03-28T03:09:26.562Z,12.80
2019-03-28T03:15:31.286Z,13.40
2019-03-28T03:21:36.054Z,14.57
2019-03-28T03:27:56.163Z,14.40
2019-03-28T03:33:47.336Z,15.30
2019-03-28T03:39:51.951Z,14.43
2019-03-28T03:45:56.540Z,16.13
2019-03-28T03:52:01.178Z,15.17
2019-03-28T03:58:15.617Z,15.63
2019-03-28T04:04:12.221Z,16.43
2019-03-28T04:10:16.817Z,16.27
2019-03-28T04:16:21.451Z,18.30
2019-03-28T04:22:26.034Z,18.20
2019-03-28T04:28:32.574Z,18.57
2019-03-28T04:34:36.959Z,20.00
2019-03-28T04:40:41.619Z,20.00
2019-03-28T04:46:46.190Z,19.83
2019-03-28T04:52:52.903Z,21.57
2019-03-28T04:58:57.133Z,20.03
2019-03-28T05:05:01.695Z,19.50
2019-03-28T05:11:07.300Z,20.07
2019-03-28T05:17:11.898Z,20.77
2019-03-28T05:23:16.480Z,21.57
2019-03-28T05:29:22.052Z,21.27
2019-03-28T05:35:26.645Z,22.10
2019-03-28T05:41:31.232Z,19.23
2019-03-28T05:47:35.822Z,19.57
2019-03-28T05:53:40.465Z,19.87
2019-03-28T05:59:45.370Z,23.13
2019-03-28T06:05:50.097Z,21.10
2019-03-28T06:11:54.832Z,21.07
2019-03-28T06:17:59.454Z,21.07
2019-03-28T06:24:04.049Z,20.60
2019-03-28T06:30:10.435Z,17.37
2019-03-28T06:36:15.015Z,20.60
2019-03-28T06:42:19.617Z,16.70
2019-03-28T06:48:24.208Z,19.27
2019-03-28T06:54:28.810Z,19.40
2019-03-28T07:00:33.485Z,20.63
2019-03-28T07:06:38.095Z,23.13
2019-03-28T07:12:42.687Z,20.77
2019-03-28T07:18:47.366Z,17.97
2019-03-28T07:24:51.962Z,19.60
2019-03-28T07:30:56.562Z,19.03
2019-03-28T07:37:01.136Z,18.53
2019-03-28T07:43:05.792Z,18.80
2019-03-28T07:49:10.375Z,18.40
2019-03-28T07:55:16.697Z,18.67
2019-03-28T08:01:21.458Z,18.50
2019-03-28T08:07:26.054Z,19.80
2019-03-28T08:13:30.687Z,19.23
2019-03-28T08:19:35.274Z,15.87
2019-03-28T08:25:40.069Z,16.20
2019-03-28T08:31:46.590Z,18.87
2019-03-28T08:37:51.324Z,21.20
2019-03-28T08:43:55.924Z,16.90
2019-03-28T08:50:00.528Z,16.57
2019-03-28T08:56:05.118Z,12.77
2019-03-28T09:02:09.770Z,13.17
2019-03-28T09:08:14.364Z,16.70
2019-03-28T09:14:18.958Z,11.73
2019-03-28T09:20:23.618Z,12.90
2019-03-28T09:26:28.287Z,11.33
2019-03-28T09:32:33.045Z,10.60
2019-03-28T09:38:37.639Z,9.07
2019-03-28T09:44:42.225Z,9.00
2019-03-28T09:50:46.817Z,8.70
2019-03-28T09:56:51.430Z,9.00
2019-03-28T10:02:56.079Z,7.00
2019-03-28T10:09:00.738Z,8.07
2019-03-28T10:15:08.050Z,7.37
2019-03-28T10:21:12.716Z,8.57
2019-03-28T10:27:19.195Z,9.90
2019-03-28T10:33:24.538Z,8.97
2019-03-28T10:39:29.421Z,7.83
2019-03-28T10:45:34.138Z,9.47
2019-03-28T10:51:38.807Z,8.60
2019-03-28T10:57:43.437Z,7.60
2019-03-28T11:03:48.809Z,7.77
2019-03-28T11:09:53.408Z,7.80
2019-03-28T11:15:58.019Z,7.97
2019-03-28T11:22:02.605Z,6.57
2019-03-28T11:28:07.365Z,7.23
2019-03-28T11:34:12.067Z,8.53
2019-03-28T11:40:16.895Z,6.50
2019-03-28T11:46:21.493Z,5.53
2019-03-28T11:52:26.075Z,5.20
2019-03-28T11:58:30.690Z,4.23
2019-03-28T12:04:38.541Z,4.33
2019-03-28T12:10:41.675Z,6.80
2019-03-28T12:16:46.273Z,4.90
2019-03-28T12:22:55.754Z,5.57
2019-03-28T12:28:58.782Z,3.93
2019-03-28T12:35:03.371Z,3.90
2019-03-28T12:41:08.041Z,4.07
2019-03-28T12:47:12.706Z,4.40
2019-03-28T12:53:17.300Z,4.37
2019-03-28T12:59:21.892Z,4.70
2019-03-28T13:05:26.482Z,4.73
2019-03-28T13:11:31.069Z,4.70
2019-03-28T13:17:35.680Z,3.70
2019-03-28T13:23:40.364Z,4.13
2019-03-28T13:29:44.975Z,6.80
2019-03-28T13:35:49.547Z,4.40
2019-03-28T13:41:54.192Z,3.80
2019-03-28T13:47:58.753Z,3.70
2019-03-28T13:54:03.307Z,3.10
2019-03-28T14:00:10.678Z,4.10
2019-03-28T14:06:15.310Z,5.20
2019-03-28T14:12:23.332Z,3.40
2019-03-28T14:18:27.187Z,3.30
2019-03-28T14:24:31.757Z,4.23
2019-03-28T14:30:39.408Z,3.80
2019-03-28T14:36:42.619Z,3.03
2019-03-28T14:42:47.169Z,3.10
2019-03-28T14:48:51.780Z,3.97
2019-03-28T14:54:56.474Z,3.40
2019-03-28T15:01:01.108Z,5.37
2019-03-28T15:07:07.373Z,3.77
2019-03-28T15:13:12.186Z,4.33
2019-03-28T15:19:16.765Z,4.57
2019-03-28T15:25:21.399Z,6.00
2019-03-28T15:31:26.042Z,9.43
2019-03-28T15:37:30.624Z,5.70
2019-03-28T15:43:35.269Z,6.30
2019-03-28T15:49:39.888Z,6.20
2019-03-28T15:55:44.472Z,7.43
2019-03-28T16:01:49.107Z,5.47
2019-03-28T16:07:59.295Z,7.70
2019-03-28T16:14:03.418Z,4.93
2019-03-28T16:20:09.282Z,5.93
2019-03-28T16:26:13.909Z,5.80
2019-03-28T16:32:18.541Z,5.67
2019-03-28T16:38:23.098Z,5.70
2019-03-28T16:44:27.718Z,6.27
2019-03-28T16:50:32.290Z,5.77
2019-03-28T16:56:36.948Z,6.70
2019-03-28T17:02:41.768Z,7.40
2019-03-28T17:08:46.881Z,9.60
2019-03-28T17:14:51.801Z,12.20
2019-03-28T17:20:57.315Z,7.17
2019-03-28T17:27:01.959Z,7.00
2019-03-28T17:33:06.542Z,7.57
2019-03-28T17:39:11.118Z,5.93
2019-03-28T17:45:15.688Z,7.17
2019-03-28T17:51:20.323Z,5.07
2019-03-28T17:57:24.915Z,5.60
2019-03-28T18:03:31.360Z,5.47
2019-03-28T18:09:35.887Z,5.40
2019-03-28T18:15:40.707Z,5.93
2019-03-28T18:21:46.044Z,6.17
2019-03-28T18:27:50.753Z,5.90
2019-03-28T18:33:55.305Z,6.00
2019-03-28T18:39:59.858Z,5.33
2019-03-28T18:46:04.474Z,5.07
2019-03-28T18:52:09.170Z,7.23
2019-03-28T18:58:13.735Z,6.33
2019-03-28T19:04:18.297Z,6.03
2019-03-28T19:10:23.006Z,6.00
2019-03-28T19:16:27.592Z,5.30
2019-03-28T19:22:32.211Z,5.40
2019-03-28T19:28:36.765Z,5.70
2019-03-28T19:34:41.406Z,5.83
2019-03-28T19:40:46.039Z,5.37
2019-03-28T19:46:50.667Z,5.97
2019-03-28T19:52:55.297Z,6.03
2019-03-28T19:58:59.873Z,6.97
2019-03-28T20:05:06.215Z,5.60
2019-03-28T20:11:10.939Z,6.30
2019-03-28T20:17:15.755Z,6.10
2019-03-28T20:23:20.329Z,6.10
2019-03-28T20:29:24.938Z,6.63
2019-03-28T20:35:29.562Z,6.13
2019-03-28T20:41:34.180Z,6.27
2019-03-28T20:47:40.410Z,6.63
2019-03-28T20:53:44.990Z,7.20
2019-03-28T20:59:49.646Z,7.27
2019-03-28T21:05:54.326Z,7.43
2019-03-28T21:11:58.972Z,8.00
2019-03-28T21:18:03.622Z,7.80
2019-03-28T21:24:08.192Z,9.03
2019-03-28T21:30:13.220Z,7.83
2019-03-28T21:36:29.105Z,7.97
2019-03-28T21:42:24.070Z,9.10
2019-03-28T21:48:28.640Z,8.10
2019-03-28T21:54:33.264Z,8.90
2019-03-28T22:00:37.891Z,9.63
2019-03-28T22:06:43.407Z,10.03
2019-03-28T22:12:48.264Z,10.87
2019-03-28T22:18:52.905Z,11.17
2019-03-28T22:24:57.528Z,10.13
2019-03-28T22:31:02.144Z,10.17
2019-03-28T22:37:06.694Z,9.13
2019-03-28T22:43:11.246Z,9.13
2019-03-28T22:49:15.823Z,9.60
2019-03-28T22:55:20.391Z,11.43
2019-03-28T23:01:25.112Z,10.73
2019-03-28T23:07:29.670Z,11.03
2019-03-28T23:13:34.332Z,11.50
2019-03-28T23:19:38.888Z,11.70
2019-03-28T23:25:43.448Z,11.03
2019-03-28T23:31:50.655Z,10.70
2019-03-28T23:37:54.350Z,10.13
2019-03-28T23:43:58.913Z,11.63
2019-03-28T23:50:03.661Z,11.20
2019-03-28T23:56:08.208Z,11.40
